createdAt,value
2022-09-03T00:03:24.437Z,100558.53
2022-09-03T00:13:30.741Z,100559.53
2022-09-03T00:23:37.649Z,100567.97
2022-09-03T00:33:41.675Z,100560.88
2022-09-03T00:44:02.435Z,100559.37
2022-09-03T00:54:12.068Z,100559.31
2022-09-03T01:04:30.604Z,100565.56
2022-09-03T01:14:41.284Z,100564.09
2022-09-03T01:25:08.231Z,100574.44
2022-09-03T01:35:20.718Z,100583.88
2022-09-03T01:45:43.497Z,100588.69
2022-09-03T01:56:06.506Z,100595.38
2022-09-03T02:06:10.321Z,100601.59
2022-09-03T02:16:17.194Z,100607.97
2022-09-03T02:26:23.157Z,100606.84
2022-09-03T02:36:29.722Z,100601.06
2022-09-03T02:46:35.975Z,100611.88
2022-09-03T02:56:40.785Z,100604.75
2022-09-03T03:06:47.704Z,100616.44
2022-09-03T03:16:53.080Z,100616.09
2022-09-03T03:26:58.132Z,100603.09
2022-09-03T03:37:02.646Z,100612.91
2022-09-03T03:47:06.293Z,100625.69
2022-09-03T03:57:11.006Z,100622.72
2022-09-03T04:07:15.523Z,100628.78
2022-09-03T04:17:25.027Z,100629.22
2022-09-03T04:27:28.543Z,100652.16
2022-09-03T04:37:33.719Z,100650.06
2022-09-03T04:47:37.568Z,100649.16
2022-09-03T04:57:43.128Z,100657.75
2022-09-03T05:07:46.456Z,100666.97
2022-09-03T05:17:52.687Z,100677.22
2022-09-03T05:27:56.047Z,100665.84
2022-09-03T05:38:01.824Z,100672.09
2022-09-03T05:48:05.027Z,100669.12
2022-09-03T05:58:09.610Z,100666.16
2022-09-03T06:08:12.773Z,100668.38
2022-09-03T06:18:17.384Z,100654.47
2022-09-03T06:28:23.320Z,100644.41
2022-09-03T06:38:33.481Z,100655.47
2022-09-03T06:48:37.456Z,100657.22
2022-09-03T06:58:44.110Z,100646.81
2022-09-03T07:08:47.865Z,100649.06
2022-09-03T07:18:52.769Z,100638.28
2022-09-03T07:28:56.474Z,100637.66
2022-09-03T07:39:01.223Z,100638.78
2022-09-03T07:49:06.305Z,100637.50
2022-09-03T07:59:12.041Z,100635.91
2022-09-03T08:09:15.474Z,100632.84
2022-09-03T08:19:20.300Z,100634.31
2022-09-03T08:29:23.795Z,100632.94
2022-09-03T08:39:29.365Z,100628.97
2022-09-03T08:49:37.629Z,100619.44
2022-09-03T08:59:42.154Z,100626.03
2022-09-03T09:09:49.931Z,100612.03
2022-09-03T09:20:04.425Z,100609.25
2022-09-03T09:30:08.545Z,100603.00
2022-09-03T09:40:25.679Z,100602.09
2022-09-03T09:50:28.916Z,100599.56
2022-09-03T10:00:34.987Z,100597.94
2022-09-03T10:10:43.087Z,100586.25
2022-09-03T10:20:51.851Z,100579.06
2022-09-03T10:31:22.341Z,100587.50
2022-09-03T10:41:36.206Z,100585.38
2022-09-03T10:51:48.852Z,100575.44
2022-09-03T11:02:01.275Z,100576.63
2022-09-03T11:12:07.676Z,100569.53
2022-09-03T11:22:13.286Z,100555.75
2022-09-03T11:32:23.191Z,100549.56
2022-09-03T11:42:34.088Z,100555.53
2022-09-03T11:52:40.545Z,100554.16
2022-09-03T12:02:47.497Z,100552.88
2022-09-03T12:13:00.817Z,100550.34
2022-09-03T12:23:05.583Z,100548.94
2022-09-03T12:33:11.037Z,100554.41
2022-09-03T12:53:41.938Z,100546.63
2022-09-03T13:03:49.149Z,100529.75
2022-09-03T13:13:55.638Z,100523.88
2022-09-03T13:24:17.954Z,100522.63
2022-09-03T13:34:24.887Z,100515.44
2022-09-03T13:44:54.424Z,100517.91
2022-09-03T13:55:00.398Z,100507.87
2022-09-03T14:05:09.767Z,100515.56
2022-09-03T14:15:19.942Z,100500.31
2022-09-03T14:25:25.422Z,100500.41
2022-09-03T14:35:56.647Z,100497.16
2022-09-03T14:46:11.522Z,100494.09
2022-09-03T14:56:30.278Z,100485.88
2022-09-03T15:06:46.137Z,100484.81
2022-09-03T15:16:55.391Z,100485.88
2022-09-03T15:27:11.077Z,100493.00
2022-09-03T15:37:21.221Z,100497.53
2022-09-03T15:47:50.858Z,100493.06
2022-09-03T15:58:09.400Z,100479.06
2022-09-03T16:08:21.055Z,100492.69
2022-09-03T16:18:27.243Z,100502.38
2022-09-03T16:28:34.326Z,100494.66
2022-09-03T16:38:44.770Z,100492.13
2022-09-03T16:48:56.109Z,100503.81
2022-09-03T16:59:10.641Z,100502.94
2022-09-03T17:09:28.797Z,100503.03
2022-09-03T17:19:37.562Z,100515.25
2022-09-03T17:29:56.950Z,100523.31
2022-09-03T17:40:14.006Z,100538.44
2022-09-03T17:50:23.860Z,100547.53
2022-09-03T18:00:31.836Z,100556.41
2022-09-03T18:10:45.093Z,100564.69
2022-09-03T18:21:23.218Z,100584.41
2022-09-03T18:31:46.421Z,100594.38
2022-09-03T18:42:13.771Z,100604.97
2022-09-03T18:52:39.876Z,100615.84
2022-09-03T19:03:09.142Z,100620.25
2022-09-03T19:13:44.981Z,100610.84
2022-09-03T19:24:05.996Z,100623.97
2022-09-03T19:34:49.567Z,100626.47
2022-09-03T19:45:18.586Z,100634.34
2022-09-03T19:55:44.507Z,100634.00
2022-09-03T20:06:10.259Z,100643.22
2022-09-03T20:16:22.032Z,100656.47
2022-09-03T20:26:36.837Z,100669.91
2022-09-03T20:36:48.813Z,100671.22
2022-09-03T20:47:05.474Z,100670.81
2022-09-03T20:57:22.686Z,100683.44
2022-09-03T21:07:35.725Z,100695.44
2022-09-03T21:17:52.558Z,100714.34
2022-09-03T21:28:02.595Z,100713.91
2022-09-03T21:38:09.380Z,100718.34
2022-09-03T21:48:18.274Z,100731.78
2022-09-03T21:58:32.974Z,100729.41
2022-09-03T22:08:42.147Z,100735.97
2022-09-03T22:18:47.232Z,100740.94
2022-09-03T22:29:00.509Z,100741.31
2022-09-03T22:39:14.671Z,100750.66
2022-09-03T22:49:43.620Z,100739.91
2022-09-03T22:59:55.591Z,100740.06
2022-09-03T23:10:04.631Z,100743.41
2022-09-03T23:20:14.255Z,100746.59
2022-09-03T23:30:17.857Z,100759.97
2022-09-03T23:40:36.352Z,100751.97
2022-09-03T23:50:44.767Z,100769.91
